sensor_id;sensor_type;location;lat;lon;timestamp;P1;durP1;ratioP1;P2;durP2;ratioP2
74457;SDS011;62896;51.032;3.712;2023-06-22T00:01:43;6.4;;;3.4;;
74457;SDS011;62896;51.032;3.712;2023-06-22T00:05:03;6.4;;;3.4;;
74457;SDS011;62896;51.032;3.712;2023-06-22T00:08:23;6.4;;;3.4;;
74457;SDS011;62896;51.032;3.712;2023-06-22T00:11:43;6.4;;;3.4;;
74457;SDS011;62896;51.032;3.712;2023-06-22T00:15:03;8.1;;;4.8;;
74457;SDS011;62896;51.032;3.712;2023-06-22T00:18:23;8.1;;;4.8;;
74457;SDS011;62896;51.032;3.712;2023-06-22T00:21:43;8.1;;;4.8;;
74457;SDS011;62896;51.032;3.712;2023-06-22T00:25:03;8.1;;;4.8;;
74457;SDS011;62896;51.032;3.712;2023-06-22T00:28:23;8.1;;;4.8;;
74457;SDS011;62896;51.032;3.712;2023-06-22T00:31:43;8.1;;;4.8;;
74457;SDS011;62896;51.032;3.712;2023-06-22T00:35:03;8.1;;;4.8;;
74457;SDS011;62896;51.032;3.712;2023-06-22T00:38:23;9.5;;;6.5;;
74457;SDS011;62896;51.032;3.712;2023-06-22T00:41:43;9.5;;;6.5;;
74457;SDS011;62896;51.032;3.712;2023-06-22T00:45:03;9.5;;;6.5;;
74457;SDS011;62896;51.032;3.712;2023-06-22T00:48:23;9.5;;;6.5;;
74457;SDS011;62896;51.032;3.712;2023-06-22T00:51:43;9.5;;;6.5;;
74457;SDS011;62896;51.032;3.712;2023-06-22T00:55:03;9.5;;;6.5;;
74457;SDS011;62896;51.032;3.712;2023-06-22T00:58:23;9.5;;;6.5;;
74457;SDS011;62896;51.032;3.712;2023-06-22T01:01:43;9.5;;;6.5;;
74457;SDS011;62896;51.032;3.712;2023-06-22T01:05:03;7;;;5.3;;
74457;SDS011;62896;51.032;3.712;2023-06-22T01:08:25;7;;;5.3;;
74457;SDS011;62896;51.032;3.712;2023-06-22T01:11:45;7;;;5.3;;
74457;SDS011;62896;51.032;3.712;2023-06-22T01:15:05;7;;;5.3;;
74457;SDS011;62896;51.032;3.712;2023-06-22T01:18:23;7;;;5.3;;
74457;SDS011;62896;51.032;3.712;2023-06-22T01:21:43;7;;;5.3;;
74457;SDS011;62896;51.032;3.712;2023-06-22T01:25:07;7;;;5.3;;
74457;SDS011;62896;51.032;3.712;2023-06-22T01:31:43;4.5;;;3.1;;
74457;SDS011;62896;51.032;3.712;2023-06-22T01:35:03;4.5;;;3.1;;
74457;SDS011;62896;51.032;3.712;2023-06-22T01:38:23;4.5;;;3.1;;
74457;SDS011;62896;51.032;3.712;2023-06-22T01:41:43;4.5;;;3.1;;
74457;SDS011;62896;51.032;3.712;2023-06-22T01:45:03;4.5;;;3.1;;
74457;SDS011;62896;51.032;3.712;2023-06-22T01:48:23;4.5;;;3.1;;
74457;SDS011;62896;51.032;3.712;2023-06-22T01:51:43;4.5;;;3.1;;
74457;SDS011;62896;51.032;3.712;2023-06-22T01:55:03;4.6;;;2.6;;
74457;SDS011;62896;51.032;3.712;2023-06-22T01:58:23;4.6;;;2.6;;
74457;SDS011;62896;51.032;3.712;2023-06-22T02:01:43;4.6;;;2.6;;
74457;SDS011;62896;51.032;3.712;2023-06-22T02:05:03;4.6;;;2.6;;
74457;SDS011;62896;51.032;3.712;2023-06-22T02:08:23;4.6;;;2.6;;
74457;SDS011;62896;51.032;3.712;2023-06-22T02:11:43;4.6;;;2.6;;
74457;SDS011;62896;51.032;3.712;2023-06-22T02:15:03;4.6;;;2.6;;
74457;SDS011;62896;51.032;3.712;2023-06-22T02:18:23;3.7;;;2.3;;
74457;SDS011;62896;51.032;3.712;2023-06-22T02:21:43;3.7;;;2.3;;
74457;SDS011;62896;51.032;3.712;2023-06-22T02:25:03;3.7;;;2.3;;
74457;SDS011;62896;51.032;3.712;2023-06-22T02:28:23;3.7;;;2.3;;
74457;SDS011;62896;51.032;3.712;2023-06-22T02:31:43;3.7;;;2.3;;
74457;SDS011;62896;51.032;3.712;2023-06-22T02:35:03;3.7;;;2.3;;
74457;SDS011;62896;51.032;3.712;2023-06-22T02:38:23;3.7;;;2.3;;
74457;SDS011;62896;51.032;3.712;2023-06-22T02:41:43;3.7;;;2.3;;
74457;SDS011;62896;51.032;3.712;2023-06-22T02:45:03;3.1;;;2.2;;
74457;SDS011;62896;51.032;3.712;2023-06-22T02:48:23;3.1;;;2.2;;
74457;SDS011;62896;51.032;3.712;2023-06-22T02:51:44;3.1;;;2.2;;
74457;SDS011;62896;51.032;3.712;2023-06-22T02:55:03;3.1;;;2.2;;
74457;SDS011;62896;51.032;3.712;2023-06-22T02:58:23;3.1;;;2.2;;
74457;SDS011;62896;51.032;3.712;2023-06-22T03:01:43;3.1;;;2.2;;
74457;SDS011;62896;51.032;3.712;2023-06-22T03:05:03;3.1;;;2.2;;
74457;SDS011;62896;51.032;3.712;2023-06-22T03:08:23;3.1;;;2.2;;
74457;SDS011;62896;51.032;3.712;2023-06-22T03:11:43;3.1;;;2.2;;
74457;SDS011;62896;51.032;3.712;2023-06-22T03:15:04;3.1;;;2.2;;
74457;SDS011;62896;51.032;3.712;2023-06-22T03:18:23;3.1;;;2.2;;
74457;SDS011;62896;51.032;3.712;2023-06-22T03:21:43;3.1;;;2.2;;
74457;SDS011;62896;51.032;3.712;2023-06-22T03:25:03;3.1;;;2.2;;
74457;SDS011;62896;51.032;3.712;2023-06-22T03:28:23;3.1;;;2.2;;
74457;SDS011;62896;51.032;3.712;2023-06-22T03:31:43;3.1;;;2.2;;
74457;SDS011;62896;51.032;3.712;2023-06-22T03:35:03;6.4;;;4.3;;
74457;SDS011;62896;51.032;3.712;2023-06-22T03:38:23;6.4;;;4.3;;
74457;SDS011;62896;51.032;3.712;2023-06-22T03:41:43;6.4;;;4.3;;
74457;SDS011;62896;51.032;3.712;2023-06-22T03:45:03;6.4;;;4.3;;
74457;SDS011;62896;51.032;3.712;2023-06-22T03:48:23;6.4;;;4.3;;
74457;SDS011;62896;51.032;3.712;2023-06-22T03:51:43;6.4;;;4.3;;
74457;SDS011;62896;51.032;3.712;2023-06-22T03:55:03;6.4;;;4.3;;
74457;SDS011;62896;51.032;3.712;2023-06-22T03:58:23;10.7;;;5.4;;
74457;SDS011;62896;51.032;3.712;2023-06-22T04:01:43;10.7;;;5.4;;
74457;SDS011;62896;51.032;3.712;2023-06-22T04:05:03;10.7;;;5.4;;
74457;SDS011;62896;51.032;3.712;2023-06-22T04:08:23;10.7;;;5.4;;
74457;SDS011;62896;51.032;3.712;2023-06-22T04:11:43;10.7;;;5.4;;
74457;SDS011;62896;51.032;3.712;2023-06-22T04:15:03;10.7;;;5.4;;
74457;SDS011;62896;51.032;3.712;2023-06-22T04:18:23;10.7;;;5.4;;
74457;SDS011;62896;51.032;3.712;2023-06-22T04:21:43;10.7;;;5.4;;
74457;SDS011;62896;51.032;3.712;2023-06-22T04:25:03;11.5;;;6.3;;
74457;SDS011;62896;51.032;3.712;2023-06-22T04:28:23;11.5;;;6.3;;
74457;SDS011;62896;51.032;3.712;2023-06-22T04:31:43;11.5;;;6.3;;
74457;SDS011;62896;51.032;3.712;2023-06-22T04:35:03;11.5;;;6.3;;
74457;SDS011;62896;51.032;3.712;2023-06-22T04:38:23;11.5;;;6.3;;
74457;SDS011;62896;51.032;3.712;2023-06-22T04:41:43;11.5;;;6.3;;
74457;SDS011;62896;51.032;3.712;2023-06-22T04:45:03;11.5;;;6.3;;
74457;SDS011;62896;51.032;3.712;2023-06-22T04:48:23;12.1;;;6.4;;
74457;SDS011;62896;51.032;3.712;2023-06-22T04:51:43;12.1;;;6.4;;
74457;SDS011;62896;51.032;3.712;2023-06-22T04:55:03;12.1;;;6.4;;
74457;SDS011;62896;51.032;3.712;2023-06-22T04:58:23;12.1;;;6.4;;
74457;SDS011;62896;51.032;3.712;2023-06-22T05:01:43;12.1;;;6.4;;
74457;SDS011;62896;51.032;3.712;2023-06-22T05:05:03;12.1;;;6.4;;
74457;SDS011;62896;51.032;3.712;2023-06-22T05:08:23;12.1;;;6.4;;
74457;SDS011;62896;51.032;3.712;2023-06-22T05:11:43;12.1;;;6.4;;
74457;SDS011;62896;51.032;3.712;2023-06-22T05:15:03;13.1;;;7;;
74457;SDS011;62896;51.032;3.712;2023-06-22T05:18:23;13.1;;;7;;
74457;SDS011;62896;51.032;3.712;2023-06-22T05:21:43;13.1;;;7;;
74457;SDS011;62896;51.032;3.712;2023-06-22T05:25:04;13.1;;;7;;
74457;SDS011;62896;51.032;3.712;2023-06-22T05:28:23;13.1;;;7;;
74457;SDS011;62896;51.032;3.712;2023-06-22T05:31:43;13.1;;;7;;
74457;SDS011;62896;51.032;3.712;2023-06-22T05:35:03;13.1;;;7;;
74457;SDS011;62896;51.032;3.712;2023-06-22T05:38:23;19;;;8.3;;
74457;SDS011;62896;51.032;3.712;2023-06-22T05:41:44;19;;;8.3;;
74457;SDS011;62896;51.032;3.712;2023-06-22T05:45:03;19;;;8.3;;
74457;SDS011;62896;51.032;3.712;2023-06-22T05:48:23;19;;;8.3;;
74457;SDS011;62896;51.032;3.712;2023-06-22T05:51:43;19;;;8.3;;
74457;SDS011;62896;51.032;3.712;2023-06-22T05:55:03;19;;;8.3;;
74457;SDS011;62896;51.032;3.712;2023-06-22T05:58:23;19;;;8.3;;
74457;SDS011;62896;51.032;3.712;2023-06-22T06:01:43;19;;;8.3;;
74457;SDS011;62896;51.032;3.712;2023-06-22T06:05:03;11.6;;;6.9;;
74457;SDS011;62896;51.032;3.712;2023-06-22T06:08:23;11.6;;;6.9;;
74457;SDS011;62896;51.032;3.712;2023-06-22T06:11:43;11.6;;;6.9;;
74457;SDS011;62896;51.032;3.712;2023-06-22T06:15:03;11.6;;;6.9;;
74457;SDS011;62896;51.032;3.712;2023-06-22T06:28:24;15.2;;;8.4;;
